NCAR-RAP Real-Time Weather Data

Output produced by METARs form (23 June 2021  08:49 UTC)
found at http://weather.rap.ucar.edu/surface/
 
CYSF 230800Z AUTO 26008KT 9SM BKN086 11/09 A2934 RMK SLP942 DENSITY ALT 1300FT
CYSF 230700Z AUTO 26008KT 9SM CLR 11/09 A2934 RMK SLP941 DENSITY ALT 1200FT
CYSF 230600Z AUTO 25007KT 9SM CLR 11/09 A2933 RMK SLP940 DENSITY ALT 1300FT
CYSF 230500Z AUTO 26005KT 9SM CLR 11/08 A2932 RMK SLP937 DENSITY ALT 1300FT
CYSF 230400Z AUTO 28005KT 9SM CLR 14/09 A2932 RMK SLP935 DENSITY ALT 1600FT
CYSF 230300Z AUTO 30009KT 9SM CLR 16/09 A2931 RMK SLP934 DENSITY ALT 1800FT
CYSF 230200Z AUTO 29005KT 9SM OVC042 15/09 A2930 RMK SLP931 DENSITY ALT 1800FT
CYSF 230100Z AUTO 27006KT 9SM OVC044 16/07 A2930 RMK SLP931 DENSITY ALT 1900FT
CYSF 230000Z AUTO 29005KT 9SM BKN055 OVC071 17/08 A2930 RMK SLP931 DENSITY ALT 2000FT
CYSF 222312Z AUTO 27004KT 9SM OVC071 16/10 A2931 RMK SLP932 DENSITY ALT 1900FT
CYSF 222300Z AUTO 31003KT 270V330 9SM -RA OVC071 16/10 A2930 RMK SLP934 DENSITY ALT 1900FT
CYSF 222237Z AUTO 29005KT 9SM -RA BKN071 OVC082 17/07 A2931 RMK SLP932 DENSITY ALT 2000FT
CYSF 222200Z AUTO 29008KT 9SM BKN071 OVC090 18/07 A2932 RMK SLP939 DENSITY ALT 2100FT
CYSF 222112Z AUTO 27009KT 9SM OVC071 18/07 A2934 RMK SLP940 DENSITY ALT 2100FT
CYSF 222102Z AUTO 27008KT 9SM -RA OVC071 18/08 A2934 RMK SLP940 DENSITY ALT 2100FT
CYSF 222100Z AUTO 26009KT 9SM OVC071 18/08 A2933 RMK SLP944 DENSITY ALT 2000FT
CYSF 222058Z AUTO 26009KT 9SM OVC071 18/08 A2934 RMK SLP941 DENSITY ALT 2000FT